Time;durP1;ratioP1;P1;durP2;ratioP2;P2;SDS_P1;SDS_P2;PMS_P1;PMS_P2;Temp;Humidity;BMP_temperature;BMP_pressure;BME280_temperature;BME280_humidity;BME280_pressure;Samples;Min_cycle;Max_cycle;Signal;HPM_P1;HPM_P2
2023/06/01 00:00:07;;;;;;;12.83;7.10;;;17.50;99.90;;;;;;4957893;28;20273;-74
2023/06/01 00:02:33;;;;;;;15.00;7.00;;;17.50;99.90;;;;;;4982016;28;20207;-74
2023/06/01 00:05:02;;;;;;;13.33;6.73;;;17.60;99.90;;;;;;4959870;28;20276;-74
2023/06/01 00:07:29;;;;;;;7.40;4.80;;;17.60;99.90;;;;;;4959627;28;20218;-74
2023/06/01 00:09:56;;;;;;;11.43;5.30;;;17.60;99.90;;;;;;4954787;28;20323;-74
2023/06/01 00:12:22;;;;;;;9.20;5.90;;;17.70;99.90;;;;;;4942112;28;20186;-74
2023/06/01 00:14:51;;;;;;;10.53;5.40;;;17.80;99.90;;;;;;4961716;28;20187;-74
2023/06/01 00:17:19;;;;;;;10.60;5.40;;;17.80;99.90;;;;;;4976167;28;20186;-74
2023/06/01 00:19:47;;;;;;;8.37;5.70;;;17.80;99.90;;;;;;4946981;28;20181;-74
2023/06/01 00:22:13;;;;;;;9.63;5.37;;;17.80;99.90;;;;;;4951862;28;20304;-73
2023/06/01 00:24:40;;;;;;;12.37;5.03;;;17.80;99.90;;;;;;4955553;28;20194;-73
2023/06/01 00:27:07;;;;;;;9.30;4.40;;;17.80;99.90;;;;;;4963145;28;20183;-73
2023/06/01 00:29:33;;;;;;;8.90;3.77;;;17.80;99.90;;;;;;4958558;28;20201;-73
2023/06/01 00:31:59;;;;;;;7.53;4.07;;;17.80;99.90;;;;;;4961906;28;20187;-72
2023/06/01 00:34:25;;;;;;;7.03;3.57;;;17.90;99.90;;;;;;4964048;28;20244;-73
2023/06/01 00:36:52;;;;;;;6.20;3.70;;;17.90;99.90;;;;;;4957926;28;20205;-73
2023/06/01 00:39:18;;;;;;;5.17;3.60;;;17.90;99.90;;;;;;4959026;28;20197;-73
2023/06/01 00:41:45;;;;;;;3.27;2.47;;;17.90;99.90;;;;;;4958752;28;20284;-75
2023/06/01 00:44:11;;;;;;;5.70;3.03;;;17.90;99.90;;;;;;4956842;28;20629;-75
2023/06/01 00:46:40;;;;;;;7.13;4.67;;;17.90;99.90;;;;;;4962214;28;20311;-75
2023/06/01 00:49:07;;;;;;;8.17;4.83;;;18.00;99.90;;;;;;4965721;28;20198;-75
2023/06/01 00:51:35;;;;;;;10.37;4.80;;;18.00;99.90;;;;;;4962689;28;20190;-74
2023/06/01 00:54:02;;;;;;;9.30;5.10;;;18.00;99.90;;;;;;4975444;28;20182;-74
2023/06/01 00:56:28;;;;;;;8.03;4.47;;;18.00;99.90;;;;;;4957215;28;20211;-74
2023/06/01 00:58:57;;;;;;;7.80;3.93;;;18.00;99.90;;;;;;4984066;28;20907;-75
2023/06/01 01:01:27;;;;;;;8.03;4.30;;;17.90;99.90;;;;;;4956773;28;20312;-76
2023/06/01 01:04:00;;;;;;;7.00;4.83;;;17.90;99.90;;;;;;4950624;28;20210;-76
2023/06/01 01:06:50;;;;;;;7.33;4.97;;;17.90;99.90;;;;;;4961631;28;20207;-76
2023/06/01 01:09:39;;;;;;;9.73;5.03;;;17.90;99.90;;;;;;4987227;28;20626;-76
2023/06/01 01:12:27;;;;;;;8.40;4.70;;;17.90;99.90;;;;;;4957469;28;20209;-77
2023/06/01 01:15:42;;;;;;;9.63;5.37;;;17.90;99.90;;;;;;4959018;28;20190;-76
2023/06/01 01:18:22;;;;;;;11.70;5.33;;;17.90;99.90;;;;;;4950709;28;20198;-76
2023/06/01 01:21:00;;;;;;;7.23;4.53;;;17.90;99.90;;;;;;4954697;28;20201;-75
2023/06/01 01:24:11;;;;;;;8.17;4.57;;;17.80;99.90;;;;;;4954889;28;20194;-77
2023/06/01 01:27:37;;;;;;;10.13;4.73;;;17.80;99.90;;;;;;4953671;28;20296;-76
2023/06/01 01:30:06;;;;;;;6.53;4.30;;;17.80;99.90;;;;;;4967329;28;20198;-76
2023/06/01 01:32:35;;;;;;;10.67;5.10;;;17.80;99.90;;;;;;4956712;28;20198;-76
2023/06/01 01:35:05;;;;;;;8.30;5.83;;;17.80;99.90;;;;;;4953825;28;20188;-77
2023/06/01 01:37:34;;;;;;;8.20;5.70;;;17.80;99.90;;;;;;4955249;28;20213;-78
2023/06/01 01:40:00;;;;;;;9.23;5.70;;;17.80;99.90;;;;;;4962296;28;20202;-78
2023/06/01 01:42:28;;;;;;;10.17;6.33;;;17.70;99.90;;;;;;4953790;28;20190;-79
2023/06/01 01:44:55;;;;;;;10.87;6.10;;;17.80;99.90;;;;;;4970634;28;20197;-79
2023/06/01 01:48:04;;;;;;;10.40;5.80;;;17.80;99.90;;;;;;4954766;28;20549;-77
2023/06/01 01:50:38;;;;;;;13.03;5.33;;;17.80;99.90;;;;;;4954793;28;20574;-77
2023/06/01 01:53:09;;;;;;;9.07;5.27;;;17.80;99.90;;;;;;4953413;28;20193;-77
2023/06/01 01:55:36;;;;;;;12.53;5.37;;;17.90;99.90;;;;;;4955549;28;20194;-77
2023/06/01 01:58:04;;;;;;;11.57;5.93;;;17.80;99.90;;;;;;4955524;28;20224;-77
2023/06/01 02:00:31;;;;;;;12.17;5.50;;;17.80;99.90;;;;;;4954225;28;20276;-77
2023/06/01 02:03:00;;;;;;;8.67;4.97;;;17.80;99.90;;;;;;4982447;28;20199;-77
2023/06/01 02:05:26;;;;;;;10.10;5.87;;;17.80;99.90;;;;;;4954816;28;20218;-77
2023/06/01 02:07:53;;;;;;;12.33;5.90;;;17.90;99.90;;;;;;4969626;28;20895;-77
2023/06/01 02:10:19;;;;;;;8.20;5.20;;;17.80;99.90;;;;;;4956530;28;20214;-77
2023/06/01 02:12:45;;;;;;;9.60;5.13;;;17.80;99.90;;;;;;4958843;28;20183;-77
2023/06/01 02:15:11;;;;;;;19.17;5.60;;;17.80;99.90;;;;;;4957173;28;20198;-77
2023/06/01 02:17:38;;;;;;;11.67;4.73;;;17.80;99.90;;;;;;4954427;28;20610;-77
2023/06/01 02:20:05;;;;;;;7.60;4.23;;;17.70;99.90;;;;;;4959404;28;20194;-77
2023/06/01 02:22:31;;;;;;;5.47;4.30;;;17.80;99.90;;;;;;4960460;28;20205;-77
2023/06/01 02:24:58;;;;;;;7.43;4.27;;;17.70;99.90;;;;;;4951359;28;20234;-76
2023/06/01 02:27:24;;;;;;;8.47;4.57;;;17.70;99.90;;;;;;4974609;28;20189;-75
2023/06/01 02:29:50;;;;;;;9.80;4.43;;;17.70;99.90;;;;;;4951811;28;20288;-75
2023/06/01 02:32:17;;;;;;;7.60;4.47;;;17.70;99.90;;;;;;4952271;28;20514;-74
2023/06/01 02:34:43;;;;;;;8.87;3.93;;;17.70;99.90;;;;;;4957141;28;20240;-74
2023/06/01 02:37:09;;;;;;;7.17;4.57;;;17.70;99.90;;;;;;4954481;28;20198;-75
2023/06/01 02:39:35;;;;;;;7.10;4.80;;;17.70;99.90;;;;;;4956568;28;20190;-75
2023/06/01 02:42:01;;;;;;;6.97;4.40;;;17.70;99.90;;;;;;4955523;28;20190;-76
2023/06/01 02:44:27;;;;;;;11.23;4.73;;;17.70;99.90;;;;;;4952853;28;20213;-75
2023/06/01 02:46:54;;;;;;;9.20;4.47;;;17.70;99.90;;;;;;4953552;28;20641;-76
2023/06/01 02:49:20;;;;;;;9.60;4.60;;;17.60;99.90;;;;;;4969046;28;20201;-75
2023/06/01 02:51:46;;;;;;;6.60;3.93;;;17.60;99.90;;;;;;4952212;28;20187;-75
2023/06/01 02:54:12;;;;;;;6.53;4.33;;;17.60;99.90;;;;;;4953658;28;20210;-75
2023/06/01 02:56:39;;;;;;;6.90;4.27;;;17.60;99.90;;;;;;4955291;28;20321;-75
2023/06/01 02:59:05;;;;;;;8.83;4.73;;;17.60;99.90;;;;;;4970192;28;20193;-75
2023/06/01 03:01:35;;;;;;;9.53;4.03;;;17.50;99.90;;;;;;4952085;28;20183;-75
2023/06/01 03:04:07;;;;;;;6.87;4.30;;;17.50;99.90;;;;;;4952119;28;20709;-76
2023/06/01 03:06:37;;;;;;;8.37;4.57;;;17.50;99.90;;;;;;4979376;28;20232;-76
2023/06/01 03:09:05;;;;;;;6.93;4.60;;;17.50;99.90;;;;;;4953601;28;20930;-76
2023/06/01 03:11:31;;;;;;;11.10;5.27;;;17.50;99.90;;;;;;4952766;28;20193;-76
2023/06/01 03:13:57;;;;;;;11.40;5.20;;;17.50;99.90;;;;;;4956844;28;20697;-76
2023/06/01 03:16:25;;;;;;;9.27;4.87;;;17.60;99.90;;;;;;4968922;28;20328;-77
2023/06/01 03:18:52;;;;;;;7.23;4.53;;;17.60;99.90;;;;;;4954987;28;20194;-77
2023/06/01 03:21:18;;;;;;;7.73;4.77;;;17.60;99.90;;;;;;4953252;28;20281;-77
2023/06/01 03:23:46;;;;;;;10.17;4.97;;;17.60;99.90;;;;;;4977185;28;20201;-77
2023/06/01 03:26:12;;;;;;;8.33;5.00;;;17.60;99.90;;;;;;4978596;28;20225;-77
2023/06/01 03:28:39;;;;;;;15.53;4.90;;;17.60;99.90;;;;;;4958990;28;20668;-77
2023/06/01 03:31:07;;;;;;;9.77;4.60;;;17.60;99.90;;;;;;4950381;28;20194;-76
2023/06/01 03:33:33;;;;;;;10.30;4.90;;;17.70;99.90;;;;;;4954554;28;20679;-76
2023/06/01 03:35:59;;;;;;;7.27;4.87;;;17.70;99.90;;;;;;4978171;28;20195;-76
2023/06/01 03:38:25;;;;;;;9.00;4.43;;;17.70;99.90;;;;;;4954065;28;20202;-76
2023/06/01 03:40:52;;;;;;;6.63;4.40;;;17.80;99.90;;;;;;4938872;28;20985;-76
2023/06/01 03:43:18;;;;;;;6.07;4.43;;;17.80;99.90;;;;;;4951842;28;20195;-76
2023/06/01 03:45:44;;;;;;;6.87;4.40;;;17.80;99.90;;;;;;4957615;28;20218;-76
2023/06/01 03:48:10;;;;;;;10.57;4.30;;;17.80;99.90;;;;;;4952814;28;20870;-76
2023/06/01 03:50:37;;;;;;;8.73;4.57;;;17.70;99.90;;;;;;4952209;28;20198;-76
2023/06/01 03:53:03;;;;;;;5.37;4.13;;;17.80;99.90;;;;;;4957513;28;20269;-76
2023/06/01 03:55:30;;;;;;;6.83;4.40;;;17.80;99.90;;;;;;4953575;28;20186;-76
2023/06/01 03:57:57;;;;;;;6.30;4.30;;;17.80;99.90;;;;;;4958483;28;20200;-76
2023/06/01 04:00:23;;;;;;;7.37;4.50;;;17.80;99.90;;;;;;4970147;28;20194;-76
2023/06/01 04:02:57;;;;;;;7.30;4.17;;;17.80;99.90;;;;;;4956271;28;20651;-76
2023/06/01 04:05:26;;;;;;;8.27;4.40;;;17.90;99.90;;;;;;4954766;28;20670;-76
2023/06/01 04:07:54;;;;;;;7.17;4.20;;;17.90;99.90;;;;;;4968594;28;20881;-77
2023/06/01 04:10:21;;;;;;;5.27;4.00;;;17.90;99.90;;;;;;4955095;28;20202;-76
2023/06/01 04:12:50;;;;;;;6.10;3.77;;;17.90;99.90;;;;;;4957189;28;20770;-76
2023/06/01 04:15:19;;;;;;;8.40;4.20;;;17.90;99.90;;;;;;4960958;28;20556;-77
2023/06/01 04:17:45;;;;;;;9.63;4.43;;;17.90;99.90;;;;;;4960047;28;20203;-76
2023/06/01 04:20:17;;;;;;;7.20;4.27;;;18.00;99.90;;;;;;4953159;28;20296;-77
2023/06/01 04:22:45;;;;;;;8.23;4.50;;;18.00;99.90;;;;;;4960377;28;20709;-76
2023/06/01 04:25:17;;;;;;;5.90;4.40;;;18.00;99.90;;;;;;4957995;28;20265;-75
2023/06/01 04:27:47;;;;;;;5.93;3.97;;;18.00;99.90;;;;;;4951569;28;20198;-76
2023/06/01 04:30:16;;;;;;;10.17;4.20;;;18.10;99.90;;;;;;4957330;28;20194;-75
2023/06/01 04:32:47;;;;;;;5.73;3.77;;;18.10;99.90;;;;;;4955412;28;20204;-75
2023/06/01 04:35:14;;;;;;;5.30;3.53;;;18.10;99.90;;;;;;4973118;28;20191;-76
2023/06/01 04:37:42;;;;;;;6.73;3.80;;;18.20;99.90;;;;;;4955862;28;20561;-76
2023/06/01 04:40:10;;;;;;;7.13;3.90;;;18.20;99.90;;;;;;4953389;28;20210;-76
2023/06/01 04:42:42;;;;;;;6.73;3.97;;;18.20;99.90;;;;;;4961052;28;21111;-76
2023/06/01 04:45:11;;;;;;;9.83;4.00;;;18.20;99.90;;;;;;4944242;28;20564;-76
2023/06/01 04:47:39;;;;;;;7.47;3.60;;;18.30;99.90;;;;;;4959449;28;20186;-76
2023/06/01 04:50:10;;;;;;;8.17;3.73;;;18.30;99.90;;;;;;4955146;28;20693;-76
2023/06/01 04:52:39;;;;;;;10.37;4.20;;;18.40;99.90;;;;;;4955290;28;20205;-76
2023/06/01 04:55:07;;;;;;;5.73;3.43;;;18.40;99.90;;;;;;4959259;28;20404;-76
2023/06/01 04:57:38;;;;;;;7.20;3.73;;;18.40;99.90;;;;;;4954991;28;20187;-76
2023/06/01 05:00:11;;;;;;;9.30;3.73;;;18.50;99.90;;;;;;4958690;28;20218;-76
2023/06/01 05:02:38;;;;;;;6.33;3.50;;;18.50;99.90;;;;;;4955374;28;20205;-77
2023/06/01 05:05:08;;;;;;;6.33;3.87;;;18.50;99.90;;;;;;4978839;28;20791;-77
2023/06/01 05:07:36;;;;;;;7.77;3.67;;;18.60;99.90;;;;;;4975257;28;21119;-78
2023/06/01 05:10:05;;;;;;;8.93;4.00;;;18.60;99.90;;;;;;4957129;28;20193;-78
2023/06/01 05:12:33;;;;;;;10.57;4.17;;;18.60;99.90;;;;;;4955715;28;20272;-77
2023/06/01 05:15:03;;;;;;;9.53;4.00;;;18.70;99.90;;;;;;4983153;28;20929;-77
2023/06/01 05:17:30;;;;;;;7.63;4.30;;;18.80;99.90;;;;;;4978821;28;20228;-77
2023/06/01 05:19:57;;;;;;;9.30;4.87;;;18.80;99.90;;;;;;4953438;28;20194;-77
2023/06/01 05:22:24;;;;;;;7.80;3.90;;;18.90;99.90;;;;;;4958526;28;20201;-78
2023/06/01 05:24:50;;;;;;;8.27;4.70;;;18.90;99.90;;;;;;4969950;28;20191;-78
2023/06/01 05:27:17;;;;;;;10.37;4.30;;;19.00;99.90;;;;;;4958021;28;20861;-78
2023/06/01 05:29:43;;;;;;;7.60;4.53;;;19.00;99.90;;;;;;4956385;28;20272;-77
2023/06/01 05:32:10;;;;;;;11.47;4.47;;;19.10;99.90;;;;;;4956739;28;20187;-77
2023/06/01 05:34:36;;;;;;;10.73;4.43;;;19.10;99.90;;;;;;4950161;28;20190;-77
2023/06/01 05:37:03;;;;;;;6.83;3.70;;;19.10;99.90;;;;;;4939557;28;20194;-78
2023/06/01 05:39:30;;;;;;;5.63;3.93;;;19.20;99.90;;;;;;4956615;28;20278;-77
2023/06/01 05:41:58;;;;;;;7.57;4.50;;;19.30;99.90;;;;;;4955273;28;20585;-78
2023/06/01 05:44:25;;;;;;;10.03;4.17;;;19.30;99.90;;;;;;4968033;28;20190;-77
2023/06/01 05:46:52;;;;;;;9.23;4.20;;;19.30;99.90;;;;;;4954701;28;20638;-77
2023/06/01 05:49:19;;;;;;;6.67;4.03;;;19.40;99.90;;;;;;4950913;28;20198;-77
2023/06/01 05:51:46;;;;;;;7.70;3.40;;;19.40;99.90;;;;;;4955239;28;20232;-77
2023/06/01 05:54:13;;;;;;;7.93;4.00;;;19.40;99.90;;;;;;4952243;28;20267;-77
2023/06/01 05:56:44;;;;;;;6.13;3.60;;;19.50;99.90;;;;;;4955274;28;20879;-76
2023/06/01 05:59:10;;;;;;;6.77;3.80;;;19.50;99.90;;;;;;4954826;28;20186;-77
2023/06/01 06:01:37;;;;;;;9.13;3.60;;;19.50;99.90;;;;;;4965521;28;20233;-76
2023/06/01 06:04:03;;;;;;;8.17;3.37;;;19.60;99.90;;;;;;4958510;28;20195;-77
2023/06/01 06:06:30;;;;;;;7.77;3.63;;;19.70;99.90;;;;;;4954327;28;20210;-77
2023/06/01 06:08:56;;;;;;;5.10;3.00;;;19.70;99.90;;;;;;4954152;28;20185;-76
2023/06/01 06:11:23;;;;;;;6.53;3.07;;;19.70;99.90;;;;;;4953535;28;20226;-77
2023/06/01 06:13:50;;;;;;;6.17;3.17;;;19.70;99.90;;;;;;4952279;28;20569;-75
2023/06/01 06:16:16;;;;;;;6.23;3.40;;;19.80;99.90;;;;;;4954620;28;20186;-75
2023/06/01 06:18:43;;;;;;;8.93;3.00;;;19.90;99.90;;;;;;4953164;28;20198;-75
2023/06/01 06:21:09;;;;;;;11.43;3.27;;;19.90;99.90;;;;;;4956238;28;20281;-76
2023/06/01 06:23:37;;;;;;;8.10;2.87;;;20.00;99.90;;;;;;4955791;28;20264;-76
2023/06/01 06:26:03;;;;;;;8.40;3.07;;;20.10;99.90;;;;;;4954327;28;20256;-76
2023/06/01 06:28:29;;;;;;;7.97;2.93;;;20.10;99.90;;;;;;4976664;28;20202;-75
2023/06/01 06:30:56;;;;;;;6.43;2.77;;;20.20;99.90;;;;;;4954356;28;20194;-76
2023/06/01 06:33:23;;;;;;;4.53;3.00;;;20.20;99.90;;;;;;4957372;28;20190;-77
2023/06/01 06:35:49;;;;;;;7.10;2.77;;;20.30;99.90;;;;;;4950036;28;20654;-77
2023/06/01 06:38:16;;;;;;;8.43;3.00;;;20.40;99.90;;;;;;4975463;28;20645;-77
2023/06/01 06:40:43;;;;;;;6.67;2.80;;;20.40;99.90;;;;;;4978958;28;20190;-77
2023/06/01 06:43:09;;;;;;;5.00;3.00;;;20.50;99.90;;;;;;4957998;28;20248;-76
2023/06/01 06:45:35;;;;;;;5.70;3.07;;;20.50;99.90;;;;;;4954400;28;20240;-77
2023/06/01 06:48:02;;;;;;;6.27;3.00;;;20.60;99.90;;;;;;4965740;28;20309;-77
2023/06/01 06:50:28;;;;;;;7.07;3.17;;;20.70;99.90;;;;;;4961294;28;20214;-77
2023/06/01 06:52:55;;;;;;;5.50;2.90;;;20.80;99.90;;;;;;4958390;28;20659;-77
2023/06/01 06:55:22;;;;;;;4.65;2.40;;;20.90;99.90;;;;;;4973211;28;20709;-77
2023/06/01 06:57:48;;;;;;;5.93;3.00;;;21.00;99.90;;;;;;4962272;28;20189;-77
2023/06/01 07:00:15;;;;;;;12.48;3.22;;;21.00;99.90;;;;;;4963446;28;20205;-77
2023/06/01 07:02:44;;;;;;;8.23;4.03;;;21.10;99.90;;;;;;4957357;28;20238;-77
2023/06/01 07:05:11;;;;;;;10.82;4.57;;;21.30;99.90;;;;;;4972505;28;20198;-77
2023/06/01 07:07:38;;;;;;;6.65;4.63;;;21.50;99.90;;;;;;4987521;28;20268;-77
2023/06/01 07:10:06;;;;;;;8.95;4.63;;;21.50;99.90;;;;;;4958488;28;20605;-77
2023/06/01 07:12:32;;;;;;;8.13;4.25;;;21.60;99.90;;;;;;4959917;28;20225;-77
2023/06/01 07:14:58;;;;;;;12.55;4.80;;;21.60;99.90;;;;;;4964152;28;20538;-77
2023/06/01 07:17:24;;;;;;;7.05;4.75;;;21.60;99.90;;;;;;4957855;28;20289;-77
2023/06/01 07:19:50;;;;;;;9.60;4.88;;;21.60;99.90;;;;;;4956085;28;20225;-77
2023/06/01 07:22:17;;;;;;;11.18;5.38;;;21.70;99.90;;;;;;4953727;28;20604;-77
2023/06/01 07:24:44;;;;;;;8.05;4.40;;;21.70;99.90;;;;;;4959092;28;20209;-77
2023/06/01 07:27:12;;;;;;;11.68;4.15;;;21.80;99.90;;;;;;4956384;28;20214;-77
2023/06/01 07:29:39;;;;;;;11.25;5.22;;;21.80;99.90;;;;;;4952777;28;20597;-77
2023/06/01 07:32:06;;;;;;;12.10;5.17;;;21.90;99.90;;;;;;4956041;28;20341;-77
2023/06/01 07:34:35;;;;;;;11.63;4.82;;;21.90;99.90;;;;;;4960151;28;20237;-77
2023/06/01 07:37:03;;;;;;;7.85;5.13;;;22.00;99.90;;;;;;4958318;28;20191;-77
2023/06/01 07:39:30;;;;;;;9.07;5.35;;;22.00;99.90;;;;;;4940956;28;20287;-77
2023/06/01 07:41:56;;;;;;;9.20;5.45;;;22.10;99.90;;;;;;4971771;28;20195;-77
2023/06/01 07:44:23;;;;;;;8.50;5.22;;;22.10;99.90;;;;;;4959637;28;20195;-77
2023/06/01 07:46:49;;;;;;;14.18;5.57;;;22.10;99.90;;;;;;4953003;28;20309;-77
2023/06/01 07:49:16;;;;;;;10.05;5.22;;;22.20;99.90;;;;;;4956241;28;20705;-77
2023/06/01 07:51:43;;;;;;;13.45;5.38;;;22.20;99.90;;;;;;4949681;28;20193;-77
2023/06/01 07:54:10;;;;;;;8.63;5.22;;;22.30;99.90;;;;;;4963602;28;20276;-77
2023/06/01 07:56:36;;;;;;;7.80;4.80;;;22.30;99.90;;;;;;4956735;28;20205;-77
2023/06/01 07:59:03;;;;;;;10.30;5.15;;;22.30;99.90;;;;;;4988873;28;20217;-77
2023/06/01 08:01:30;;;;;;;13.15;5.60;;;22.40;99.90;;;;;;4961624;28;20281;-77
2023/06/01 08:03:56;;;;;;;10.13;5.22;;;22.40;99.90;;;;;;4971468;28;20225;-77
2023/06/01 08:06:23;;;;;;;9.52;4.85;;;22.50;99.90;;;;;;4959832;28;20542;-77
2023/06/01 08:08:51;;;;;;;10.07;5.38;;;22.50;99.90;;;;;;4952375;28;20239;-77
2023/06/01 08:11:17;;;;;;;6.85;5.10;;;22.60;99.90;;;;;;4960423;28;20191;-77
2023/06/01 08:13:48;;;;;;;9.95;5.28;;;22.60;99.90;;;;;;4954498;28;20262;-77
2023/06/01 08:16:14;;;;;;;11.65;5.25;;;22.60;99.90;;;;;;4962334;28;20194;-77
2023/06/01 08:18:41;;;;;;;7.60;4.85;;;22.70;99.90;;;;;;4957359;28;20195;-77
2023/06/01 08:21:10;;;;;;;9.23;4.90;;;22.60;99.90;;;;;;4959498;28;20309;-77
2023/06/01 08:23:36;;;;;;;9.32;5.32;;;22.80;99.90;;;;;;4955890;28;20313;-77
2023/06/01 08:26:03;;;;;;;8.85;4.72;;;22.80;99.90;;;;;;4981399;28;21076;-77
2023/06/01 08:28:30;;;;;;;9.30;4.90;;;22.90;99.90;;;;;;4971041;28;20201;-77
2023/06/01 08:30:56;;;;;;;7.55;4.93;;;23.00;99.90;;;;;;4973741;28;20209;-77
2023/06/01 08:33:22;;;;;;;9.60;4.70;;;23.10;99.90;;;;;;4955839;28;20701;-77
2023/06/01 08:35:49;;;;;;;8.18;4.55;;;23.20;99.90;;;;;;4956811;28;20195;-78
2023/06/01 08:38:15;;;;;;;7.60;4.53;;;23.20;99.90;;;;;;4964603;28;20187;-77
2023/06/01 08:40:41;;;;;;;8.65;4.95;;;23.20;99.90;;;;;;4962378;28;20182;-76
2023/06/01 08:43:31;;;;;;;6.55;4.47;;;23.20;99.90;;;;;;4974247;28;20211;-76
2023/06/01 08:46:00;;;;;;;6.47;4.30;;;23.20;99.90;;;;;;4955831;28;20211;-76
2023/06/01 08:48:28;;;;;;;6.05;4.45;;;23.20;99.90;;;;;;4966743;28;20191;-76
2023/06/01 08:50:58;;;;;;;11.20;4.32;;;23.20;99.90;;;;;;4951253;28;20700;-76
2023/06/01 08:53:28;;;;;;;8.05;5.10;;;23.20;99.90;;;;;;4954155;28;20294;-76
2023/06/01 08:55:56;;;;;;;8.82;5.35;;;23.10;99.90;;;;;;4982979;28;20199;-76
2023/06/01 08:58:23;;;;;;;8.18;4.95;;;23.00;99.90;;;;;;4947187;28;20672;-76
2023/06/01 09:00:53;;;;;;;9.23;5.15;;;23.00;99.90;;;;;;4983210;28;20194;-76
2023/06/01 09:03:20;;;;;;;9.25;5.15;;;23.00;99.90;;;;;;4957080;28;20198;-77
2023/06/01 09:05:46;;;;;;;10.63;4.93;;;23.00;99.90;;;;;;4954033;28;20210;-76
2023/06/01 09:08:13;;;;;;;9.55;5.13;;;23.10;99.90;;;;;;4973526;28;20194;-76
2023/06/01 09:10:42;;;;;;;10.63;5.20;;;23.00;99.90;;;;;;4939008;28;20330;-76
2023/06/01 09:13:08;;;;;;;8.73;5.20;;;23.00;99.90;;;;;;4955912;28;20677;-76
2023/06/01 09:15:35;;;;;;;10.50;5.13;;;23.00;99.90;;;;;;4962083;28;20781;-76
2023/06/01 09:18:13;;;;;;;9.60;4.70;;;23.20;99.90;;;;;;4965080;28;20662;-76
2023/06/01 09:20:42;;;;;;;9.02;5.10;;;23.40;99.90;;;;;;4961909;28;20194;-76
2023/06/01 09:23:08;;;;;;;8.93;5.25;;;23.50;99.90;;;;;;4959069;28;20234;-76
2023/06/01 09:25:35;;;;;;;9.82;5.15;;;23.60;99.90;;;;;;4956296;28;20336;-76
2023/06/01 09:28:02;;;;;;;10.00;5.10;;;23.80;99.90;;;;;;4951885;28;20236;-76
2023/06/01 09:30:42;;;;;;;8.45;4.85;;;23.90;99.90;;;;;;4948818;28;20249;-76
2023/06/01 09:33:16;;;;;;;6.88;4.85;;;24.00;99.90;;;;;;4953325;28;20827;-76
2023/06/01 09:35:48;;;;;;;11.75;5.57;;;24.10;99.90;;;;;;4952618;28;20983;-76
2023/06/01 09:38:23;;;;;;;8.13;4.88;;;24.10;99.90;;;;;;4970039;28;20213;-76
2023/06/01 09:41:03;;;;;;;12.63;5.20;;;24.30;99.90;;;;;;4969601;28;20190;-76
2023/06/01 09:43:36;;;;;;;9.02;4.68;;;24.40;99.90;;;;;;4952678;28;20633;-76
2023/06/01 09:46:13;;;;;;;7.35;4.93;;;24.50;99.90;;;;;;4955259;28;20219;-76
2023/06/01 09:48:42;;;;;;;11.45;4.60;;;24.60;99.90;;;;;;4950943;28;20264;-76
2023/06/01 09:51:30;;;;;;;7.43;4.80;;;24.60;99.90;;;;;;4947898;28;20230;-76
2023/06/01 09:53:57;;;;;;;10.40;4.93;;;24.70;99.90;;;;;;4953089;28;20245;-77
2023/06/01 09:56:24;;;;;;;11.13;5.30;;;24.80;99.90;;;;;;4951325;28;20209;-76
2023/06/01 09:58:59;;;;;;;7.93;4.72;;;24.90;99.90;;;;;;4969539;28;20208;-76
2023/06/01 10:01:31;;;;;;;10.27;5.13;;;25.00;99.90;;;;;;4983056;28;20397;-76
2023/06/01 10:04:01;;;;;;;33.88;5.82;;;25.10;99.90;;;;;;4981715;28;20613;-76
2023/06/01 10:06:28;;;;;;;10.07;5.22;;;25.10;99.90;;;;;;4942376;28;20207;-77
2023/06/01 10:08:57;;;;;;;11.15;5.53;;;25.20;99.90;;;;;;4952466;28;20194;-76
2023/06/01 10:11:23;;;;;;;8.73;4.82;;;25.20;99.90;;;;;;4970453;28;20282;-76
2023/06/01 10:13:50;;;;;;;7.20;4.70;;;25.30;99.90;;;;;;4959926;28;20874;-76
2023/06/01 10:16:17;;;;;;;12.20;5.22;;;25.20;99.90;;;;;;4953496;28;20213;-76
2023/06/01 10:18:45;;;;;;;15.07;5.10;;;25.20;99.90;;;;;;4938574;28;20206;-76
2023/06/01 10:21:12;;;;;;;8.77;4.93;;;25.20;99.90;;;;;;4934938;28;20553;-76
2023/06/01 10:23:38;;;;;;;8.85;5.55;;;25.30;99.90;;;;;;4951079;28;20336;-76
2023/06/01 10:26:15;;;;;;;10.13;5.68;;;25.40;99.90;;;;;;4957712;28;20210;-76
2023/06/01 10:28:47;;;;;;;13.10;5.22;;;25.40;99.90;;;;;;4937606;28;20182;-76
2023/06/01 10:31:37;;;;;;;8.88;4.78;;;25.40;99.90;;;;;;4971301;28;20194;-76
2023/06/01 10:34:05;;;;;;;11.32;5.30;;;25.40;99.90;;;;;;4990141;28;20190;-76
2023/06/01 10:36:53;;;;;;;9.15;5.45;;;25.50;99.90;;;;;;4956564;28;20596;-76
2023/06/01 10:39:31;;;;;;;9.32;4.80;;;25.60;99.90;;;;;;4962405;28;20190;-76
2023/06/01 10:42:17;;;;;;;12.13;5.35;;;25.70;99.90;;;;;;4959855;28;20532;-76
2023/06/01 10:44:44;;;;;;;10.43;5.05;;;25.70;99.90;;;;;;4959867;28;20194;-76
2023/06/01 10:47:13;;;;;;;9.27;5.20;;;25.70;99.90;;;;;;4956714;28;20866;-76
2023/06/01 10:50:02;;;;;;;7.15;4.75;;;25.70;99.90;;;;;;4952051;28;20334;-76
2023/06/01 10:52:33;;;;;;;8.10;4.57;;;25.70;99.90;;;;;;4957929;28;20669;-76
2023/06/01 10:55:11;;;;;;;8.80;4.60;;;25.70;99.90;;;;;;4960429;28;20186;-76
2023/06/01 10:57:39;;;;;;;7.47;4.57;;;25.60;99.90;;;;;;4959653;28;20756;-76
2023/06/01 11:00:28;;;;;;;9.10;4.88;;;25.60;99.90;;;;;;4993412;28;20278;-76
2023/06/01 11:03:04;;;;;;;15.63;5.70;;;25.40;99.90;;;;;;4966882;28;20206;-76
2023/06/01 11:05:51;;;;;;;10.32;4.82;;;25.40;99.90;;;;;;4975442;28;20581;-76
2023/06/01 11:08:20;;;;;;;9.30;4.57;;;25.30;99.90;;;;;;4993209;28;20531;-76
2023/06/01 11:10:59;;;;;;;11.80;5.43;;;25.20;99.90;;;;;;4959206;28;20198;-76
2023/06/01 11:13:39;;;;;;;8.10;5.18;;;25.00;99.90;;;;;;4963051;28;20186;-76
2023/06/01 11:16:13;;;;;;;14.80;5.65;;;24.90;99.90;;;;;;4965070;28;20191;-76
2023/06/01 11:18:49;;;;;;;11.85;5.30;;;24.80;99.90;;;;;;4959704;28;20224;-76
2023/06/01 11:21:24;;;;;;;7.90;5.30;;;24.70;99.90;;;;;;4965509;28;20276;-76
2023/06/01 11:23:53;;;;;;;10.75;6.10;;;24.60;99.90;;;;;;4963424;28;20183;-76
2023/06/01 11:26:24;;;;;;;9.60;5.10;;;24.60;99.90;;;;;;4990808;28;20222;-76
2023/06/01 11:28:53;;;;;;;12.27;5.38;;;24.50;99.90;;;;;;4961286;28;20673;-76
2023/06/01 11:31:20;;;;;;;11.23;4.90;;;24.50;99.90;;;;;;4964558;28;20190;-76
2023/06/01 11:33:52;;;;;;;11.80;5.53;;;24.50;99.90;;;;;;4961646;28;20195;-76
2023/06/01 11:36:23;;;;;;;12.00;5.53;;;24.50;99.90;;;;;;4963298;28;20255;-76
2023/06/01 11:38:51;;;;;;;10.88;4.97;;;24.50;99.90;;;;;;4967528;28;20724;-76
2023/06/01 11:41:20;;;;;;;11.60;5.60;;;24.50;99.90;;;;;;4958789;28;20584;-76
2023/06/01 11:43:57;;;;;;;10.25;5.28;;;24.50;99.90;;;;;;4965477;28;20186;-76
2023/06/01 11:46:26;;;;;;;10.00;4.72;;;24.50;99.90;;;;;;4960218;28;20677;-76
2023/06/01 11:49:06;;;;;;;10.32;5.22;;;24.40;99.90;;;;;;4962601;28;20502;-76
2023/06/01 11:51:37;;;;;;;8.68;5.00;;;24.30;99.90;;;;;;4960432;28;20196;-76
2023/06/01 11:54:05;;;;;;;8.18;4.80;;;24.30;99.90;;;;;;4950342;28;20178;-76
2023/06/01 11:56:39;;;;;;;7.53;4.63;;;24.30;99.90;;;;;;4965126;28;20253;-76
2023/06/01 11:59:09;;;;;;;9.18;4.90;;;24.20;99.90;;;;;;4953404;28;20198;-76
2023/06/01 12:01:42;;;;;;;12.68;5.75;;;24.20;99.90;;;;;;4964801;28;20202;-76
2023/06/01 12:04:15;;;;;;;11.60;5.22;;;24.10;99.90;;;;;;4960734;28;20202;-76
2023/06/01 12:06:42;;;;;;;9.55;5.03;;;24.10;99.90;;;;;;4961151;28;20218;-76
2023/06/01 12:09:10;;;;;;;6.80;5.43;;;24.10;99.90;;;;;;4992750;28;20187;-76
2023/06/01 12:11:37;;;;;;;9.23;5.30;;;24.10;99.90;;;;;;4961452;28;20226;-76
2023/06/01 12:14:05;;;;;;;10.23;5.25;;;24.00;99.90;;;;;;4994309;28;20601;-76
2023/06/01 12:16:55;;;;;;;8.38;4.50;;;23.90;99.90;;;;;;4957760;28;20190;-76
2023/06/01 12:19:22;;;;;;;11.80;5.10;;;23.80;99.90;;;;;;4964440;28;20220;-76
2023/06/01 12:21:57;;;;;;;8.55;5.28;;;23.80;99.90;;;;;;4991425;28;20222;-76
2023/06/01 12:24:29;;;;;;;9.95;4.82;;;23.80;99.90;;;;;;4960186;28;20590;-76
2023/06/01 12:26:58;;;;;;;11.43;5.97;;;23.70;99.90;;;;;;4959823;28;20218;-76
2023/06/01 12:29:38;;;;;;;8.40;5.30;;;23.60;99.90;;;;;;4955671;28;20617;-76
2023/06/01 12:32:06;;;;;;;8.05;5.30;;;23.60;99.90;;;;;;4960850;28;20194;-76
2023/06/01 12:34:32;;;;;;;10.85;5.15;;;23.60;99.90;;;;;;4966973;28;20201;-76
2023/06/01 12:36:58;;;;;;;10.35;5.13;;;23.60;99.90;;;;;;4964529;28;20178;-76
2023/06/01 12:39:39;;;;;;;11.50;5.75;;;23.60;99.90;;;;;;4962565;28;20191;-76
2023/06/01 12:42:06;;;;;;;7.82;5.50;;;23.60;99.90;;;;;;4961050;28;20288;-76
2023/06/01 12:44:33;;;;;;;10.30;5.63;;;23.60;99.90;;;;;;4956147;28;20273;-76
2023/06/01 12:47:03;;;;;;;8.48;4.80;;;23.60;99.90;;;;;;4960869;28;20236;-76
2023/06/01 12:49:30;;;;;;;11.02;4.95;;;23.50;99.90;;;;;;4989368;28;20324;-76
2023/06/01 12:51:56;;;;;;;8.52;5.35;;;23.50;99.90;;;;;;4963050;28;21028;-76
2023/06/01 12:54:23;;;;;;;10.70;5.43;;;23.50;99.90;;;;;;4966542;28;20190;-76